Latest Weather Observations for Canberra

IDN60801

Issued at 5:35 pm EDT Sunday 26 October 2014 (issued every 30 minutes, with the page automatically refreshed every 10 minutes)

About weather observations | Map of weather stations | Latest weather observations for NSW | Other Formats
Station Details ID: 070351 Name: CANBERRA AIRPORT Lat: -35.31 Lon: 149.20 Height: 577.05 m
Data from the previous 72 hours. | See also: Recent months at Canberra
Date/Time
EDT
Temp
°C
App
Temp
°C
Dew
Point
Rel
Hum
%
Delta-T
°C
Wind Press
QNH
hPa
Press
MSL
hPa
Rain
since 9 am
mm
Dir
 
Spd
km/h
Gust
km/h
Spd
kts
Gust
kts
26/05:30pm 25.9 20.3 5.5 27 10.8 WNW 24 35 13 19 1011.0 - 0.0
26/05:00pm 27.4 23.1 7.8 29 10.8 WNW 20 30 11 16 1010.8 - 0.0
26/04:30pm 26.5 21.2 7.0 29 10.6 WNW 24 33 13 18 1010.8 - 0.0
26/04:00pm 28.3 23.4 8.6 29 11.1 WNW 24 33 13 18 1010.6 - 0.0
26/03:30pm 27.4 22.0 7.8 29 10.8 WNW 26 33 14 18 1010.4 - 0.0
26/03:00pm 27.8 21.1 5.4 24 11.9 WNW 30 37 16 20 1010.4 1009.8 0.0
26/02:30pm 29.0 22.9 8.1 27 11.7 WNW 30 37 16 20 1010.7 - 0.0
26/02:00pm 28.3 22.2 6.4 25 11.9 WNW 28 37 15 20 1010.9 - 0.0
26/01:30pm 28.5 21.5 4.1 21 12.7 WNW 30 41 16 22 1011.1 - 0.0
26/01:00pm 28.1 20.8 2.3 19 13.0 WNW 30 44 16 24 1011.3 - 0.0
26/12:30pm 28.0 20.9 5.6 24 12.0 WNW 32 41 17 22 1011.0 - 0.0
26/12:00pm 27.6 18.6 0.4 17 13.2 WNW 37 50 20 27 1011.4 1010.8 0.0
26/11:30am 26.4 20.6 9.3 34 9.6 NW 30 43 16 23 1011.4 - 0.0
26/11:00am 25.8 23.0 11.2 40 8.5 NW 17 26 9 14 1012.2 - 0.0
26/10:30am 23.8 20.2 11.8 47 7.0 N 22 30 12 16 1012.1 - 0.0
26/10:00am 22.4 20.4 12.6 54 5.7 NNW 15 20 8 11 1012.2 - 0.0
26/09:30am 21.8 20.1 12.6 56 5.4 NNW 13 19 7 10 1012.0 - 0.0
26/09:00am 20.2 20.2 14.1 68 3.6 WNW 7 13 4 7 1012.1 1011.5 0.0
26/08:30am 18.9 19.6 14.6 76 2.6 W 4 11 2 6 1012.0 - 0.0
26/08:00am 14.8 14.9 14.5 98 0.2 SSW 7 7 4 4 1012.1 - 0.0
26/07:57am 14.7 15.4 14.5 99 0.1 SSW 4 7 2 4 1012.1 - 0.0
26/07:30am 12.9 13.7 12.7 99 0.1 CALM 0 0 0 0 1012.1 - 0.0
26/07:22am 12.1 12.7 11.9 99 0.1 CALM 0 0 0 0 1012.1 - 0.0
26/07:10am 11.2 11.5 11.0 99 0.1 CALM 0 - 0 - 1012.0 - 0.0
26/07:00am 10.2 10.3 10.0 99 0.1 CALM 0 - 0 - 1011.9 - 0.0
26/06:55am 9.7 9.6 9.6 99 0.1 CALM 0 - 0 - 1011.9 - 0.0
26/06:44am 9.1 8.9 9.0 99 0.1 CALM 0 - 0 - 1011.7 - 0.0
26/06:37am 8.9 8.3 8.8 99 0.1 NNW 2 6 1 3 1011.9 - 0.0
26/06:30am 8.6 7.1 8.5 99 0.0 NNW 6 7 3 4 1011.6 - 0.0
26/06:17am 8.5 8.1 8.4 99 0.0 CALM 0 0 0 0 1011.5 - 0.0
26/06:00am 9.7 9.6 9.6 99 0.1 CALM 0 0 0 0 1011.6 1011.1 0.0
26/05:30am 10.0 10.0 9.9 99 0.1 CALM 0 0 0 0 1011.6 - 0.0
26/05:19am 9.9 9.8 9.4 97 0.3 CALM 0 6 0 3 1011.5 - 0.0
26/05:07am 10.0 8.6 9.4 96 0.3 NNW 7 9 4 5 1011.6 - 0.0
26/05:00am 9.8 8.5 9.2 96 0.3 NNW 6 9 3 5 1011.5 - 0.0
26/04:54am 10.0 8.7 9.2 95 0.4 N 6 7 3 4 1011.5 - 0.0
26/04:53am 10.0 8.7 9.2 95 0.4 N 6 7 3 4 1011.6 - 0.0
26/04:30am 11.0 10.1 10.7 98 0.2 N 6 7 3 4 1011.6 - 0.0
26/04:21am 11.2 10.4 11.0 99 0.1 NE 6 7 3 4 1011.6 - 0.0
26/04:00am 11.0 10.0 10.4 96 0.3 NE 6 6 3 3 1011.7 - 0.0
26/03:30am 12.5 13.2 12.3 99 0.1 CALM 0 0 0 0 1011.9 - 0.0
26/03:24am 12.2 12.8 12.0 99 0.1 CALM 0 0 0 0 1011.9 - 0.0
26/03:01am 11.4 11.7 10.8 96 0.3 CALM 0 0 0 0 1012.3 - 0.0
26/03:00am 11.3 11.5 10.7 96 0.3 CALM 0 0 0 0 1012.4 1011.8 0.0
26/02:51am 10.9 10.9 9.7 92 0.6 CALM 0 2 0 1 1012.5 - 0.0
26/02:47am 11.5 11.3 10.6 94 0.5 N 2 7 1 4 1012.5 - 0.0
26/02:30am 13.2 12.4 12.9 98 0.2 N 9 11 5 6 1012.6 - 0.0
26/02:00am 14.2 13.9 13.4 95 0.5 E 7 11 4 6 1013.1 - 0.0
26/01:30am 13.6 12.6 12.3 92 0.7 ESE 9 11 5 6 1013.7 - 0.0
26/01:00am 14.5 13.5 13.4 93 0.6 E 11 11 6 6 1014.2 - 0.0
26/12:30am 14.5 12.7 13.4 93 0.6 ESE 15 17 8 9 1014.6 - 0.0
26/12:00am 14.4 13.6 12.8 90 0.9 SE 9 11 5 6 1014.7 1014.2 0.0
 
Date/Time
EDT
Temp
°C
App
Temp
°C
Dew
Point
Rel
Hum
%
Delta-T
°C
Wind Press
QNH
hPa
Press
MSL
hPa
Rain
since 9 am
mm
Dir
 
Spd
km/h
Gust
km/h
Spd
kts
Gust
kts
25/11:30pm 15.6 14.9 13.3 86 1.3 SE 9 11 5 6 1014.9 - 0.0
25/11:00pm 16.1 16.7 13.0 82 1.8 E 2 7 1 4 1015.0 - 0.0
25/10:30pm 16.9 17.3 13.6 81 1.9 S 4 11 2 6 1015.2 - 0.0
25/10:00pm 18.3 17.7 13.6 74 2.7 N 9 13 5 7 1015.4 - 0.0
25/09:30pm 19.9 19.0 13.6 67 3.7 N 11 15 6 8 1015.6 - 0.0
25/09:00pm 20.9 18.6 13.1 61 4.6 NNE 17 22 9 12 1015.2 1014.7 0.0
25/08:30pm 19.7 19.0 11.5 59 4.6 N 6 9 3 5 1014.7 - 0.0
25/08:00pm 19.1 17.5 10.1 56 5.0 ENE 9 11 5 6 1014.4 - 0.0
25/07:30pm 20.9 19.3 10.1 50 6.0 E 9 11 5 6 1014.0 - 0.0
25/07:00pm 25.5 23.2 8.9 35 9.2 W 11 15 6 8 1014.0 - 0.0
25/06:30pm 27.3 25.4 10.5 35 9.7 WNW 11 15 6 8 1013.8 - 0.0
25/06:00pm 27.4 23.9 8.8 31 10.4 W 17 22 9 12 1013.9 1013.3 0.0
25/05:30pm 27.7 25.4 11.7 37 9.4 WNW 15 22 8 12 1014.2 - 0.0
25/05:00pm 27.3 23.4 9.6 33 10.1 W 20 28 11 15 1014.9 - 0.0
25/04:30pm 27.6 22.2 9.4 32 10.3 NW 28 39 15 21 1014.7 - 0.0
25/04:00pm 26.9 20.5 8.4 31 10.3 NW 32 50 17 27 1014.8 - 0.0
25/03:45pm 27.4 20.5 10.2 34 9.9 NW 37 52 20 28 1014.7 - 0.0
25/03:39pm 27.8 21.7 10.5 34 10.0 NW 33 46 18 25 1014.5 - 0.0
25/03:30pm 27.7 21.0 9.5 32 10.4 WNW 35 43 19 23 1014.4 - 0.0
25/03:00pm 29.6 25.7 12.1 34 10.5 NW 24 35 13 19 1014.4 1013.8 0.0
25/02:30pm 29.3 24.8 9.9 30 11.2 NW 24 32 13 17 1014.8 - 0.0
25/02:00pm 29.2 25.8 11.3 33 10.6 NNW 20 26 11 14 1015.3 - 0.0
25/01:30pm 28.5 25.4 10.2 32 10.6 NNW 17 30 9 16 1015.8 - 0.0
25/01:00pm 28.1 24.8 9.4 31 10.6 N 17 20 9 11 1016.2 - 0.0
25/12:30pm 27.9 24.6 11.0 35 9.9 NW 19 28 10 15 1016.5 - 0.0
25/12:00pm 27.6 23.9 10.3 34 10.0 NW 20 28 11 15 1017.1 1016.6 0.0
25/11:30am 27.0 24.5 11.1 37 9.3 WNW 15 20 8 11 1017.6 - 0.0
25/11:00am 25.4 23.3 9.7 37 8.9 NW 11 17 6 9 1017.8 - 0.0
25/10:30am 23.3 23.3 13.5 54 5.8 NW 6 9 3 5 1018.0 - 0.0
25/10:00am 21.9 22.1 11.9 53 5.8 ENE 2 6 1 3 1018.1 - 0.0
25/09:30am 19.8 19.6 11.8 60 4.6 N 4 9 2 5 1018.3 - 0.0
25/09:00am 18.4 17.5 11.2 63 4.0 NNW 7 9 4 5 1018.3 1017.8 0.0
25/08:30am 17.5 17.9 11.1 66 3.6 CALM 0 6 0 3 1018.2 - 0.0
25/08:00am 15.6 14.3 11.2 75 2.4 SE 9 11 5 6 1018.2 - 0.0
25/07:30am 12.3 11.5 11.0 92 0.7 SSW 6 7 3 4 1018.0 - 0.0
25/07:00am 9.7 8.7 8.9 95 0.4 SSE 4 7 2 4 1017.7 - 0.0
25/06:30am 8.6 8.0 7.5 93 0.5 CALM 0 9 0 5 1017.5 - 0.0
25/06:00am 8.8 8.0 8.0 95 0.4 SE 2 7 1 4 1017.2 1016.7 0.0
25/05:30am 8.9 7.7 8.1 95 0.4 SSW 4 7 2 4 1016.9 - 0.0
25/05:00am 9.1 7.6 8.5 96 0.3 ENE 6 9 3 5 1016.4 - 0.0
25/04:30am 9.7 8.3 8.8 94 0.5 NE 6 7 3 4 1016.4 - 0.0
25/04:00am 10.4 9.9 9.5 94 0.5 S 2 7 1 4 1016.1 - 0.0
25/03:30am 9.9 9.6 8.5 91 0.7 CALM 0 4 0 2 1015.6 - 0.0
25/03:00am 10.0 9.6 8.4 90 0.8 CALM 0 9 0 5 1015.1 1014.6 0.0
25/02:30am 10.4 9.4 8.8 90 0.8 E 4 9 2 5 1014.9 - 0.0
25/02:00am 12.1 12.0 10.7 91 0.7 W 2 11 1 6 1014.9 - 0.0
25/01:30am 11.5 10.4 9.9 90 0.8 SE 6 9 3 5 1014.9 - 0.0
25/01:00am 12.5 12.6 10.2 86 1.2 CALM 0 7 0 4 1014.9 - 0.0
25/12:30am 13.1 12.2 9.4 78 1.9 SE 4 11 2 6 1014.9 - 0.0
25/12:00am 12.7 11.4 9.3 80 1.8 NNE 6 9 3 5 1015.2 1014.7 0.0
 
Date/Time
EDT
Temp
°C
App
Temp
°C
Dew
Point
Rel
Hum
%
Delta-T
°C
Wind Press
QNH
hPa
Press
MSL
hPa
Rain
since 9 am
mm
Dir
 
Spd
km/h
Gust
km/h
Spd
kts
Gust
kts
24/11:30pm 13.2 11.6 10.2 82 1.6 SE 9 11 5 6 1015.0 - 0.0
24/11:00pm 15.8 14.6 11.6 76 2.3 ESE 9 11 5 6 1014.9 - 0.0
24/10:30pm 16.1 15.2 11.3 73 2.7 ESE 7 9 4 5 1014.8 - 0.0
24/10:00pm 16.2 16.5 10.9 71 2.9 CALM 0 0 0 0 1014.7 - 0.0
24/09:30pm 18.5 17.9 13.4 72 3.0 ESE 9 13 5 7 1014.6 - 0.0
24/09:00pm 19.9 20.7 13.8 68 3.6 N 2 7 1 4 1014.2 1013.6 0.0
24/08:30pm 21.0 21.3 14.9 68 3.7 N 7 11 4 6 1014.0 - 0.0
24/08:00pm 21.6 21.3 15.4 68 3.8 ESE 11 13 6 7 1013.9 - 0.0
24/07:30pm 21.8 21.2 14.7 64 4.3 ESE 11 11 6 6 1013.4 - 0.0
24/07:00pm 22.0 22.5 13.9 60 4.8 S 4 11 2 6 1013.2 - 0.0
24/06:30pm 25.8 26.0 13.0 45 7.6 WSW 4 9 2 5 1012.8 - 0.0
24/06:00pm 25.8 24.7 13.0 45 7.6 WNW 11 13 6 7 1012.7 1012.1 0.0
24/05:30pm 26.6 25.1 13.0 43 8.1 NNW 13 20 7 11 1012.5 - 0.0
24/05:00pm 27.4 24.9 12.2 39 9.0 NW 17 24 9 13 1012.6 - 0.0
24/04:30pm 26.8 25.8 13.5 44 8.0 NW 11 15 6 8 1012.8 - 0.0
24/04:00pm 27.5 24.7 12.7 40 8.9 NW 19 32 10 17 1013.1 - 0.0
24/03:30pm 27.4 26.9 13.7 43 8.3 N 9 15 5 8 1013.7 - 0.0
24/03:00pm 26.0 25.5 13.8 47 7.4 N 9 19 5 10 1014.3 1013.7 0.0
24/02:30pm 25.9 23.2 13.4 46 7.5 NNW 20 30 11 16 1014.8 - 0.0
24/02:00pm 26.5 25.0 14.3 47 7.5 W 15 20 8 11 1015.2 - 0.0
24/01:30pm 26.2 25.0 15.0 50 6.9 W 15 22 8 12 1015.7 - 0.0
24/01:00pm 26.2 25.0 14.0 47 7.4 WNW 13 19 7 10 1016.1 - 0.0
24/12:30pm 25.1 21.3 12.3 45 7.5 NNW 24 33 13 18 1016.6 - 0.0
24/12:00pm 25.0 22.7 11.9 44 7.6 NW 15 24 8 13 1017.1 1016.6 0.0
24/11:30am 23.7 23.4 13.3 52 6.2 NW 7 11 4 6 1017.8 - 0.0
24/11:00am 22.2 21.8 12.5 54 5.7 W 6 9 3 5 1018.4 - 0.0
24/10:30am 21.7 21.3 13.1 58 5.1 NW 7 11 4 6 1018.8 - 0.0
24/10:00am 21.3 22.1 13.7 62 4.5 NNW 2 9 1 5 1019.3 - 0.0
24/09:30am 19.3 19.6 12.1 63 4.1 WNW 2 11 1 6 1019.8 - 0.0
24/09:00am 18.4 17.9 12.6 69 3.3 SW 7 9 4 5 1019.9 1019.4 6.0
24/08:30am 17.0 16.0 13.5 80 2.0 S 11 15 6 8 1019.9 - 6.0
24/08:00am 15.1 14.0 13.0 87 1.2 SW 11 15 6 8 1020.3 - 6.0
24/07:30am 13.4 11.9 11.8 90 0.9 NE 11 15 6 8 1019.9 - 6.0
24/07:00am 11.4 9.7 11.1 98 0.2 NW 11 13 6 7 1020.6 - 6.0
24/06:30am 10.6 10.3 10.0 96 0.3 S 2 7 1 4 1020.0 - 6.0
24/06:00am 10.2 8.8 9.0 92 0.6 SE 6 7 3 4 1020.0 1019.5 6.0
24/05:30am 10.5 9.1 9.6 94 0.5 SSE 7 9 4 5 1019.8 - 6.0
24/05:00am 11.7 10.8 10.6 93 0.6 S 6 9 3 5 1019.6 - 6.0
24/04:30am 12.0 9.9 11.1 94 0.5 SSW 13 13 7 7 1019.6 - 6.0
24/04:00am 13.2 11.3 11.9 92 0.7 NW 13 17 7 9 1019.3 - 6.0
24/03:30am 14.4 12.5 11.9 85 1.4 NNE 13 15 7 8 1019.7 - 6.0
24/03:00am 14.3 13.1 12.7 90 0.9 SSW 11 17 6 9 1021.3 1020.8 6.0
24/02:30am 13.7 12.7 12.3 91 0.8 SE 9 11 5 6 1021.6 - 5.8
24/02:00am 14.2 12.8 12.2 88 1.1 SSW 11 17 6 9 1021.2 - 5.6
24/01:30am 14.6 12.7 11.9 84 1.5 ENE 13 22 7 12 1020.8 - 5.6
24/01:00am 14.4 11.9 12.4 88 1.1 SSE 17 20 9 11 1022.1 - 5.6
24/12:30am 12.6 11.7 11.3 92 0.7 ESE 7 9 4 5 1021.3 - 5.4
24/12:00am 12.8 11.3 10.5 86 1.2 S 9 13 5 7 1021.2 1020.7 5.4
 
Date/Time
EDT
Temp
°C
App
Temp
°C
Dew
Point
Rel
Hum
%
Delta-T
°C
Wind Press
QNH
hPa
Press
MSL
hPa
Rain
since 9 am
mm
Dir
 
Spd
km/h
Gust
km/h
Spd
kts
Gust
kts
23/11:30pm 13.2 11.3 10.4 83 1.5 SSW 11 13 6 7 1021.3 - 5.4
23/11:00pm 14.8 12.6 10.8 77 2.2 E 13 15 7 8 1021.4 - 5.4
23/10:30pm 16.4 14.2 12.2 76 2.4 ESE 15 26 8 14 1022.0 - 5.4
23/10:00pm 16.1 14.5 12.8 81 1.9 SE 13 19 7 10 1022.4 - 5.4
23/09:30pm 15.0 14.4 13.5 91 0.9 S 9 11 5 6 1022.1 - 5.4
23/09:00pm 13.8 12.7 11.8 88 1.1 E 9 13 5 7 1021.3 1020.8 5.4
23/08:30pm 16.3 15.8 12.1 76 2.4 NNE 6 11 3 6 1020.4 - 5.4
23/08:00pm 17.6 16.2 12.1 70 3.1 WSW 11 13 6 7 1020.0 - 5.4
23/07:30pm 17.7 15.2 11.0 65 3.7 SE 15 24 8 13 1019.3 - 5.4
23/07:00pm 18.6 15.1 12.1 66 3.7 SSE 22 35 12 19 1018.5 - 5.4
23/06:30pm 19.1 15.7 10.4 57 4.8 S 19 30 10 16 1018.4 - 5.2
23/06:00pm 17.5 14.1 11.1 66 3.6 ENE 20 26 11 14 1017.8 1017.3 4.2
23/05:55pm 17.9 14.4 11.0 64 3.8 E 20 24 11 13 1017.9 - 3.0

Other Formats:

Comma delimited format used in spreadsheet applications
http://www.bom.gov.au/fwo/IDN60801/IDN60801.94926.axf

JavaScript Object Notation format (JSON) in row-major order
http://www.bom.gov.au/fwo/IDN60801/IDN60801.94926.json